Gotebo, Oklahoma
Current Conditions -  °F | °C
As of 1:53 PM on Friday 24 Oct 2014 (Local Time) from KHBR Reporting Station
Clear Clear  
Wind Chill: 83°   Ceiling: Unl
Heat Index: 83°   Visibility: 10mi
Dew Point: 60°   Wind: 12mph
Humidity: 46%   Direction: 200°SSW
Pressure: 30.06"   Gusts: 20mph
Location:  35.07°N, 98.87°W
Report Text: KHBR 241853Z AUTO 20010G17KT 10SM CLR 28/16 A3006 RMK AO2 SLP165 T02830156
Loading
Personal Weather Stations






























Interactive Weather Map
Tropical Storm Tracking
New forecast layout! Learn more

10-Day Weather Forecast

Advertisements
Track Severe Weather on mobile